Waycross, GA (31502)

7:05 AM EST on December 27, 2014 (GMT -0500)
SW Blackshear | Change Station
CLOSE
Current Station
Personal Weather Station
Location: Blackshear, GA
Elevation: 102 ft
Nearby Weather Stations

Elev 102 ft 31.24 °N, 82.29 °W | Updated 5 minutes ago

Clear
Clear
39.7 °F
Feels Like 40 °F
N
0.0
Wind Variable Wind from West
Gusts 0.0 mph

Today
High -- | Low -- °F
--% Chance of Precip.
Yesterday
High -- | Low -- °F
Precip. -- in
7:26 AM 5:34 PM
Waxing Crescent, 36% visible
Pressure 30.28 in
Visibility 10.0 miles
Clouds Clear
Windchill 40 °F
Dew Point 39 °F
Humidity 99%
Rainfall 0.00 in
Snow Depth Not available.
UV 0 out of 12
Pollen 2.70 out of 12
Air Quality Not available.
Flu Activity Not available.
METAR KAYS 271155Z AUTO 00000KT 10SM CLR 08/08 A3028 RMK AO2 T00810081 10091 20077

More Conditions Fewer Conditions

Pressure 30.28 in
Visibility 10.0 miles
Clouds Clear
Windchill 40 °F
Dew Point 39 °F
Humidity 99%
Rainfall 0.00 in
Snow Depth Not available.
UV 0 out of 12
Pollen 2.70 out of 12
Air Quality Not available.
Flu Activity Not available.
METAR KAYS 271155Z AUTO 00000KT 10SM CLR 08/08 A3028 RMK AO2 T00810081 10091 20077

More Conditions Fewer Conditions

10-Day Weather Forecast

Almanac

Astronomy

Dec. 27, 2014 Rise Set
Actual Time
Civil Twilight
Nautical Twilight
Astronomical Twilight
Moon
Length of Visible Light
Length of Day
Tomorrow will be .
, % of the Moon is Illuminated

Today's Extremes

State Highs State Lows

Community

WunderPhotos

Upload Photos

1,780,885 photos uploaded!

WunderBlogs® & News

Nearby

Air Quality

  Air Quality AQ Index Pollutant
Not available.

Snow Depth

Station Depth Elevation

Earthquake Activity

City Distance Mag. Time & Date
Minimum magnitude displayed is 2.5.

Coastal Water Temperatures

Place Temperature

Nearby Weather Stations